Osgood, Indiana
Current Conditions -  °F | °C
As of 8:15 PM on Sunday 23 Nov 2014 (Local Time) from KI67 Reporting Station
Overcast Overcast  
Wind Chill: 55°   Ceiling: 1300
Heat Index: 55°   Visibility: 7mi
Dew Point: 52°   Wind: 10mph
Humidity: 88%   Direction: 150°SSE
Pressure: 29.36"   Gusts: NA
Location:  39.13°N, 85.29°W
Report Text: KI67 240115Z AUTO 15009KT 7SM OVC013 13/11 A2936 RMK AO1 P0005
Loading
Personal Weather Stations






























Interactive Weather Map New forecast layout! Learn more

10-Day Weather Forecast

Advertisements
Track Severe Weather on mobile